• Join FlightAware (Why Join?)
  • Login
  • US Flag 
05:27PM EDT


 

Airport Tracker/Info


-or-


 

Live Flight TrackerFlight Track Log ✈ N884FT ✈ 05-Nov-2013 ✈ KMLB - KTPA

Flight Track Log - Related Links

Times and Time Zones

All times are in EST time to prevent confusion due to time zone crossing. See the N884FT flight status page for this flight to view local times or setup timezone preferences in your user account.

Time Position Orientation Groundspeed Altitude Reporting Facility
EST Latitude Longitude Course Direction KTS MPH feet Rate Location/Type
08:59AM 28.1000 -80.6500 266° West 54 62 500  Level Orlando TRACON
09:00AM 28.0833 -80.6500 180° South 113 130 1,400 720 Climbing Orlando TRACON
09:01AM 28.0500 -80.6500 180° South 111 128 2,000 600 Climbing Orlando TRACON
09:02AM 28.0333 -80.6833 240° Southwest 143 165 2,700 660 Climbing Orlando TRACON
09:03AM 28.0500 -80.7333 291° West 130 150 3,400 600 Climbing Orlando TRACON
09:04AM 28.0500 -80.7667 270° West 131 151 4,000 300 Climbing Orlando TRACON
09:05AM 28.0872 -80.8981 266° West  Level Estimated
09:05AM 28.0667 -80.8167 291° West 151 174 4,000  Level Orlando TRACON
09:06AM 28.0833 -80.8667 291° West 157 181 3,900  Descending Orlando TRACON
09:07AM 28.0833 -80.9000 270° West 159 183 4,000  Climbing Orlando TRACON
09:08AM 28.1000 -80.9667 286° West 165 190 4,000  Level Orlando TRACON
09:09AM 28.1000 -81.0167 270° West 182 209 4,100 -60 Climbing Orlando TRACON
09:10AM 28.1000 -81.0667 270° West 184 212 3,900 -120 Descending Orlando TRACON
09:11AM 28.1000 -81.1333 270° West 182 209 3,900  Level Orlando TRACON
09:12AM 28.1000 -81.1833 270° West 182 209 4,000  Climbing Orlando TRACON
09:13AM 28.0833 -81.2500 254° West 184 212 4,000  Level Orlando TRACON
09:14AM 28.0833 -81.3000 270° West 182 209 4,000  Level Orlando TRACON
09:15AM 28.0667 -81.3500 249° West 184 212 4,000  Level Orlando TRACON
09:16AM 28.0667 -81.4167 270° West 183 211 4,000  Level Orlando TRACON
09:17AM 28.0500 -81.4667 249° West 185 213 4,000  Level Orlando TRACON
09:18AM 28.0500 -81.5333 270° West 183 211 4,000  Level Orlando TRACON
09:19AM 28.0333 -81.5833 249° West 183 211 4,000  Level Orlando TRACON
09:20AM 28.0333 -81.6333 270° West 183 211 4,000  Level Orlando TRACON
09:22AM 28.0167 -81.7500 261° West 184 212 4,000  Level Tampa TRACON
09:23AM 28.0167 -81.8000 270° West 186 214 4,000  Level Tampa TRACON
09:24AM 28.0000 -81.8667 254° West 187 215 4,000  Level Tampa TRACON
09:25AM 28.0000 -81.9167 270° West 184 212 4,000  Level Tampa TRACON
09:26AM 27.9833 -81.9833 254° West 187 215 4,000  Level Tampa TRACON
09:27AM 27.9833 -82.0500 270° West 183 211 4,000  Level Tampa TRACON
09:28AM 27.9667 -82.1000 249° West 183 211 4,000  Level Tampa TRACON
09:29AM 27.9667 -82.1667 270° West 186 214 4,000  Level Tampa TRACON
09:30AM 27.9667 -82.2167 270° West 187 215 4,000  Level Tampa TRACON
09:31AM 27.9500 -82.2833 254° West 186 214 4,000  Level Tampa TRACON
09:32AM 27.9167 -82.3333 233° Southwest 182 209 4,000  Level Tampa TRACON
09:33AM 27.9000 -82.3833 249° West 182 209 4,000  Level Tampa TRACON
09:34AM 27.8667 -82.4167 221° Southwest 161 185 4,000 -240 Level Tampa TRACON
09:35AM 27.8333 -82.4333 204° Southwest 167 192 3,600 -540 Descending Tampa TRACON
09:36AM 27.8000 -82.4667 221° Southwest 165 190 3,000 -480 Descending Tampa TRACON
09:37AM 27.7833 -82.5167 249° West 163 188 2,700 -240 Descending Tampa TRACON
09:38AM 27.8000 -82.5333 319° Northwest 116 133 2,600 -60 Descending Tampa TRACON
09:39AM 27.8333 -82.5333 360° North 94 108 2,600 -60 Level Tampa TRACON
09:40AM 27.8500 -82.5333 360° North 94 108 2,500 -240 Descending Tampa TRACON
09:41AM 27.8833 -82.5333 360° North 89 102 2,200 -540 Descending Tampa TRACON
09:42AM 27.9000 -82.5333 360° North 87 100 1,500 -840 Descending Tampa TRACON
09:43AM 27.9333 -82.5333 360° North 97 112 600 -600 Descending Tampa TRACON
09:44AM 27.9500 -82.5333 360° North 93 107 300 -180 Descending Tampa TRACON
09:45AM 27.9833 -82.5333 360° North 75 86 300 480 Level Tampa TRACON
09:46AM 28.0000 -82.5333 360° North 88 101 1,100 720 Climbing Tampa TRACON
09:47AM 28.0167 -82.5167 41° Northeast 87 100 1,600 480 Climbing Tampa TRACON
09:48AM 28.0167 -82.4833 90° East 80 92 2,200 660 Climbing Tampa TRACON
09:49AM 28.0333 -82.4667 41° Northeast 72 83 3,000 360 Climbing Tampa TRACON
09:50AM 28.0333 -82.4333 90° East 112 129 3,000  Level Tampa TRACON
09:51AM 28.0500 -82.4000 60° Northeast 105 121 3,000  Level Tampa TRACON
09:52AM 28.0667 -82.3833 41° Northeast 109 125 3,000  Level Tampa TRACON
09:53AM 28.0667 -82.3500 90° East 113 130 3,000  Level Tampa TRACON
09:54AM 28.0833 -82.3167 60° Northeast 110 127 3,000 -60 Level Tampa TRACON
09:55AM 28.0833 -82.2833 90° East 111 128 2,900 -60 Descending Tampa TRACON
09:56AM 28.0833 -82.2500 90° East 108 124 2,900  Level Tampa TRACON